Time;durP1;ratioP1;P1;durP2;ratioP2;P2;SDS_P1;SDS_P2;PMS_P1;PMS_P2;Temp;Humidity;BMP_temperature;BMP_pressure;BME280_temperature;BME280_humidity;BME280_pressure;Samples;Min_cycle;Max_cycle;Signal;HPM_P1;HPM_P2
2022/03/21 00:02:22;;;;;;;5.75;3.75;;;;;;;;;;5071110;28;20034;-49
2022/03/21 00:04:48;;;;;;;4.28;3.58;;;;;;;;;;5071869;28;20025;-47
2022/03/21 00:07:14;;;;;;;6.47;4.03;;;;;;;;;;5070774;28;20021;-48
2022/03/21 00:09:40;;;;;;;3.97;3.33;;;;;;;;;;5071801;28;20032;-48
2022/03/21 00:12:06;;;;;;;4.95;3.33;;;;;;;;;;5070972;28;20077;-47
2022/03/21 00:14:32;;;;;;;4.35;3.45;;;;;;;;;;5071815;28;20071;-45
2022/03/21 00:16:59;;;;;;;4.78;3.50;;;;;;;;;;5071398;28;20056;-45
2022/03/21 00:19:25;;;;;;;4.70;3.42;;;;;;;;;;5070834;28;20075;-45
2022/03/21 00:21:51;;;;;;;5.13;3.33;;;;;;;;;;5071579;28;20035;-45
2022/03/21 00:24:17;;;;;;;4.57;3.05;;;;;;;;;;5070789;28;20206;-48
2022/03/21 00:26:43;;;;;;;4.10;3.40;;;;;;;;;;5071665;28;20028;-46
2022/03/21 00:29:10;;;;;;;4.57;3.05;;;;;;;;;;5070866;28;20028;-45
2022/03/21 00:31:37;;;;;;;4.68;3.00;;;;;;;;;;5071589;28;20103;-44
2022/03/21 00:34:03;;;;;;;4.70;3.38;;;;;;;;;;5071213;28;20029;-55
2022/03/21 00:36:29;;;;;;;4.55;3.28;;;;;;;;;;5071255;28;20032;-46
2022/03/21 00:38:57;;;;;;;4.65;3.42;;;;;;;;;;5071330;28;20017;-44
2022/03/21 00:41:23;;;;;;;3.53;2.92;;;;;;;;;;5070679;28;20626;-48
2022/03/21 00:43:52;;;;;;;5.47;3.22;;;;;;;;;;5074521;28;20016;-47
2022/03/21 00:46:18;;;;;;;4.82;3.05;;;;;;;;;;5090833;28;20029;-44
2022/03/21 00:48:44;;;;;;;4.00;2.92;;;;;;;;;;5091373;28;20572;-45
2022/03/21 00:51:11;;;;;;;4.88;3.30;;;;;;;;;;5090513;28;20020;-44
2022/03/21 00:53:37;;;;;;;5.15;3.33;;;;;;;;;;5092455;28;20020;-44
2022/03/21 00:56:03;;;;;;;5.28;3.67;;;;;;;;;;5095128;28;20065;-54
2022/03/21 00:58:29;;;;;;;4.95;3.67;;;;;;;;;;5094963;28;20035;-44
2022/03/21 01:00:56;;;;;;;4.75;3.60;;;;;;;;;;5077639;28;20024;-46
2022/03/21 01:03:22;;;;;;;5.82;4.00;;;;;;;;;;5095257;28;20058;-44
2022/03/21 01:05:48;;;;;;;4.53;3.40;;;;;;;;;;5077214;28;20032;-44
2022/03/21 01:08:14;;;;;;;4.00;2.95;;;;;;;;;;5094235;28;20035;-44
2022/03/21 01:10:40;;;;;;;5.38;3.15;;;;;;;;;;5095156;28;20024;-45
2022/03/21 01:13:06;;;;;;;4.78;3.10;;;;;;;;;;5094228;28;20052;-54
2022/03/21 01:15:33;;;;;;;3.97;3.10;;;;;;;;;;5094743;28;20136;-44
2022/03/21 01:17:59;;;;;;;4.68;3.85;;;;;;;;;;5094884;28;20056;-46
2022/03/21 01:20:25;;;;;;;5.07;3.35;;;;;;;;;;5094137;28;20074;-44
2022/03/21 01:22:52;;;;;;;5.13;2.88;;;;;;;;;;5094884;28;20095;-45
2022/03/21 01:25:18;;;;;;;4.00;2.88;;;;;;;;;;5094027;28;20107;-44
2022/03/21 01:27:44;;;;;;;3.90;2.83;;;;;;;;;;5094760;28;20028;-44
2022/03/21 01:30:11;;;;;;;4.13;3.50;;;;;;;;;;5093876;28;20028;-46
2022/03/21 01:32:38;;;;;;;4.18;3.17;;;;;;;;;;5076572;28;20381;-45
2022/03/21 01:35:05;;;;;;;3.85;3.00;;;;;;;;;;5094456;28;20112;-56
2022/03/21 01:37:31;;;;;;;3.55;2.53;;;;;;;;;;5093934;28;20047;-45
2022/03/21 01:39:57;;;;;;;4.43;3.20;;;;;;;;;;5094333;28;20067;-45
2022/03/21 01:42:23;;;;;;;4.30;3.50;;;;;;;;;;5093545;28;20108;-46
2022/03/21 01:44:53;;;;;;;3.70;3.08;;;;;;;;;;5082597;28;20107;-45
2022/03/21 01:47:19;;;;;;;4.10;3.15;;;;;;;;;;5073421;28;20082;-44
2022/03/21 01:49:45;;;;;;;4.20;3.20;;;;;;;;;;5073963;28;20032;-46
2022/03/21 01:52:12;;;;;;;5.78;3.53;;;;;;;;;;5073185;28;20032;-48
2022/03/21 01:57:23;;;;;;;3.83;3.13;;;;;;;;;;5073241;28;20054;-48
2022/03/21 01:59:49;;;;;;;4.15;3.22;;;;;;;;;;5073589;28;20074;-44
2022/03/21 02:02:15;;;;;;;3.47;3.13;;;;;;;;;;5073381;28;20064;-47
2022/03/21 02:04:42;;;;;;;4.38;3.00;;;;;;;;;;5073397;28;20020;-45
2022/03/21 02:07:08;;;;;;;3.88;3.28;;;;;;;;;;5072968;28;20024;-55
2022/03/21 02:09:34;;;;;;;4.68;2.97;;;;;;;;;;5073724;28;20167;-48
2022/03/21 02:12:00;;;;;;;5.22;3.13;;;;;;;;;;5073607;28;20024;-45
2022/03/21 02:14:26;;;;;;;3.67;2.92;;;;;;;;;;5073018;28;20035;-46
2022/03/21 02:16:53;;;;;;;3.80;3.10;;;;;;;;;;5073853;28;20127;-45
2022/03/21 02:19:26;;;;;;;4.82;3.05;;;;;;;;;;5072661;28;20025;-44
2022/03/21 02:22:01;;;;;;;3.83;2.58;;;;;;;;;;5073783;28;20111;-44
2022/03/21 02:24:39;;;;;;;4.30;3.13;;;;;;;;;;5072777;28;20016;-45
2022/03/21 02:27:06;;;;;;;4.05;3.10;;;;;;;;;;5073268;28;20032;-45
2022/03/21 02:29:32;;;;;;;3.90;2.95;;;;;;;;;;5072894;28;20036;-45
2022/03/21 02:31:58;;;;;;;4.40;2.80;;;;;;;;;;5073285;28;20028;-45
2022/03/21 02:34:26;;;;;;;4.85;3.47;;;;;;;;;;5072230;28;20021;-45
2022/03/21 02:36:54;;;;;;;3.85;3.03;;;;;;;;;;5073223;28;20043;-44
2022/03/21 02:39:21;;;;;;;4.25;2.72;;;;;;;;;;5072229;28;20033;-44
2022/03/21 02:41:47;;;;;;;5.07;3.03;;;;;;;;;;5072660;28;20031;-46
2022/03/21 02:44:13;;;;;;;3.33;3.00;;;;;;;;;;5078417;28;20052;-44
2022/03/21 02:46:39;;;;;;;5.43;2.85;;;;;;;;;;5093079;28;20465;-45
2022/03/21 02:49:06;;;;;;;5.75;3.05;;;;;;;;;;5093205;28;20022;-44
2022/03/21 02:51:33;;;;;;;4.38;2.92;;;;;;;;;;5092670;28;20028;-44
2022/03/21 02:53:59;;;;;;;3.38;2.70;;;;;;;;;;5093232;28;20028;-45
2022/03/21 02:56:25;;;;;;;4.05;2.90;;;;;;;;;;5092225;28;20073;-45
2022/03/21 02:58:51;;;;;;;6.13;3.42;;;;;;;;;;5093093;28;20022;-44
2022/03/21 03:01:18;;;;;;;4.53;3.50;;;;;;;;;;5092257;28;20031;-44
2022/03/21 03:03:45;;;;;;;4.72;3.45;;;;;;;;;;5092830;28;20515;-44
2022/03/21 03:06:12;;;;;;;3.75;2.97;;;;;;;;;;5092421;28;20366;-52
2022/03/21 03:08:39;;;;;;;4.68;3.67;;;;;;;;;;5092650;28;20028;-46
2022/03/21 03:11:06;;;;;;;3.47;2.97;;;;;;;;;;5092733;28;20457;-44
2022/03/21 03:13:32;;;;;;;3.42;2.85;;;;;;;;;;5092113;28;20377;-48
2022/03/21 03:15:58;;;;;;;4.47;2.97;;;;;;;;;;5092067;28;20477;-44
2022/03/21 03:18:24;;;;;;;3.97;3.30;;;;;;;;;;5091868;28;20031;-45
2022/03/21 03:20:50;;;;;;;3.90;2.88;;;;;;;;;;5092534;28;20085;-46
2022/03/21 03:23:18;;;;;;;3.97;2.88;;;;;;;;;;5091671;28;20024;-45
2022/03/21 03:25:44;;;;;;;3.88;3.03;;;;;;;;;;5092436;28;20043;-45
2022/03/21 03:28:10;;;;;;;3.60;2.50;;;;;;;;;;5092087;28;20020;-54
2022/03/21 03:30:36;;;;;;;4.28;3.20;;;;;;;;;;5091918;28;20020;-45
2022/03/21 03:33:02;;;;;;;3.15;2.65;;;;;;;;;;5092356;28;20028;-45
2022/03/21 03:35:29;;;;;;;4.72;3.17;;;;;;;;;;5091559;28;20224;-44
2022/03/21 03:37:55;;;;;;;4.20;3.30;;;;;;;;;;5092264;28;20091;-44
2022/03/21 03:40:21;;;;;;;4.07;2.88;;;;;;;;;;5091208;28;20024;-48
2022/03/21 03:42:47;;;;;;;4.03;3.13;;;;;;;;;;5092030;28;20481;-47
2022/03/21 03:45:13;;;;;;;4.25;2.90;;;;;;;;;;5076762;28;20024;-46
2022/03/21 03:47:40;;;;;;;3.92;2.95;;;;;;;;;;5072125;28;20028;-45
2022/03/21 03:50:06;;;;;;;3.60;3.10;;;;;;;;;;5071608;28;20029;-44
2022/03/21 03:52:32;;;;;;;4.82;3.28;;;;;;;;;;5071254;28;20025;-47
2022/03/21 03:54:58;;;;;;;4.20;2.80;;;;;;;;;;5071621;28;20428;-46
2022/03/21 03:57:24;;;;;;;5.20;3.33;;;;;;;;;;5070688;28;20024;-45
2022/03/21 03:59:50;;;;;;;3.72;3.05;;;;;;;;;;5071687;28;20032;-44
2022/03/21 04:02:16;;;;;;;8.73;3.65;;;;;;;;;;5070849;28;20024;-44
2022/03/21 04:04:42;;;;;;;3.95;2.83;;;;;;;;;;5071804;28;20031;-50
2022/03/21 04:07:08;;;;;;;4.75;3.05;;;;;;;;;;5071897;28;20025;-46
2022/03/21 04:09:34;;;;;;;4.55;3.08;;;;;;;;;;5070897;28;20047;-44
2022/03/21 04:12:02;;;;;;;3.70;2.80;;;;;;;;;;5071757;28;20480;-44
2022/03/21 04:14:28;;;;;;;4.35;3.30;;;;;;;;;;5070595;28;20108;-44
2022/03/21 04:16:54;;;;;;;4.72;3.10;;;;;;;;;;5071547;28;20052;-44
2022/03/21 04:19:20;;;;;;;3.95;2.65;;;;;;;;;;5070774;28;20024;-44
2022/03/21 04:21:46;;;;;;;5.97;3.38;;;;;;;;;;5071798;28;20086;-44
2022/03/21 04:24:12;;;;;;;2.92;2.22;;;;;;;;;;5070974;28;20016;-54
2022/03/21 04:26:38;;;;;;;4.13;3.10;;;;;;;;;;5071623;28;20098;-45
2022/03/21 04:29:05;;;;;;;4.60;2.90;;;;;;;;;;5073340;28;20466;-44
2022/03/21 04:31:32;;;;;;;3.88;2.88;;;;;;;;;;5074897;28;20020;-46
2022/03/21 04:33:58;;;;;;;3.92;3.03;;;;;;;;;;5075785;28;20025;-47
2022/03/21 04:36:24;;;;;;;4.28;3.30;;;;;;;;;;5074581;28;20473;-50
2022/03/21 04:38:50;;;;;;;4.10;2.83;;;;;;;;;;5075483;28;20496;-45
2022/03/21 04:41:16;;;;;;;5.18;2.90;;;;;;;;;;5074453;28;20071;-44
2022/03/21 04:43:42;;;;;;;4.25;2.75;;;;;;;;;;5077222;28;20032;-45
2022/03/21 04:46:09;;;;;;;4.78;3.08;;;;;;;;;;5095725;28;20084;-46
2022/03/21 04:48:35;;;;;;;4.43;3.55;;;;;;;;;;5094816;28;20096;-45
2022/03/21 04:51:01;;;;;;;4.53;3.05;;;;;;;;;;5095150;28;20508;-44
2022/03/21 04:53:27;;;;;;;5.53;3.53;;;;;;;;;;5094528;28;20027;-47
2022/03/21 04:55:53;;;;;;;4.70;3.08;;;;;;;;;;5095188;28;20384;-44
2022/03/21 04:58:19;;;;;;;4.95;2.95;;;;;;;;;;5094427;28;20028;-44
2022/03/21 05:00:45;;;;;;;3.60;2.97;;;;;;;;;;5095239;28;20116;-47
2022/03/21 05:03:11;;;;;;;4.00;2.70;;;;;;;;;;5095203;28;20020;-54
2022/03/21 05:05:38;;;;;;;5.43;2.85;;;;;;;;;;5094755;28;20103;-44
2022/03/21 05:08:04;;;;;;;4.45;3.22;;;;;;;;;;5095247;28;20028;-49
2022/03/21 05:10:31;;;;;;;4.93;3.33;;;;;;;;;;5094302;28;20055;-44
2022/03/21 05:12:57;;;;;;;4.22;3.03;;;;;;;;;;5094943;28;20095;-44
2022/03/21 05:15:24;;;;;;;4.30;2.85;;;;;;;;;;5093643;28;20473;-44
2022/03/21 05:17:53;;;;;;;4.50;2.80;;;;;;;;;;5094727;28;20075;-44
2022/03/21 05:20:19;;;;;;;3.85;2.60;;;;;;;;;;5093935;28;20107;-45
2022/03/21 05:31:02;;;;;;;4.18;3.10;;;;;;;;;;5094397;28;20492;-48
2022/03/21 05:36:13;;;;;;;4.70;3.13;;;;;;;;;;5094311;28;20078;-55
2022/03/21 05:38:39;;;;;;;3.25;2.70;;;;;;;;;;5094254;28;20017;-46
2022/03/21 05:41:05;;;;;;;4.32;3.15;;;;;;;;;;5093240;28;20039;-49
2022/03/21 05:43:32;;;;;;;4.60;3.25;;;;;;;;;;5093000;28;20024;-47
2022/03/21 05:46:03;;;;;;;4.80;3.17;;;;;;;;;;5073962;28;20117;-46
2022/03/21 05:51:13;;;;;;;4.78;3.13;;;;;;;;;;5073966;28;20111;-54
2022/03/21 05:53:40;;;;;;;12.90;3.33;;;;;;;;;;5073598;28;20485;-46
2022/03/21 05:56:06;;;;;;;4.78;3.50;;;;;;;;;;5073978;28;20017;-48
2022/03/21 05:58:32;;;;;;;4.78;3.20;;;;;;;;;;5073360;28;20029;-46
2022/03/21 06:00:58;;;;;;;4.75;3.08;;;;;;;;;;5073533;28;20060;-48
2022/03/21 06:03:27;;;;;;;5.18;3.33;;;;;;;;;;5073159;28;20090;-46
2022/03/21 06:05:55;;;;;;;5.50;3.50;;;;;;;;;;5073595;28;20134;-47
2022/03/21 06:08:22;;;;;;;4.38;3.20;;;;;;;;;;5073064;28;20016;-49
2022/03/21 06:10:48;;;;;;;4.35;3.08;;;;;;;;;;5073629;28;20028;-44
2022/03/21 06:13:15;;;;;;;5.05;3.10;;;;;;;;;;5073252;28;20024;-54
2022/03/21 06:15:41;;;;;;;3.42;2.67;;;;;;;;;;5072096;28;20036;-46
2022/03/21 06:18:11;;;;;;;4.32;3.13;;;;;;;;;;5073676;28;20077;-45
2022/03/21 06:20:37;;;;;;;4.70;2.95;;;;;;;;;;5072411;28;20035;-44
2022/03/21 06:23:03;;;;;;;4.72;2.90;;;;;;;;;;5073556;28;20087;-44
2022/03/21 06:25:29;;;;;;;4.28;2.72;;;;;;;;;;5072653;28;20112;-47
2022/03/21 06:27:56;;;;;;;4.47;3.30;;;;;;;;;;5073479;28;20029;-44
2022/03/21 06:30:22;;;;;;;4.45;3.58;;;;;;;;;;5072370;28;20039;-44
2022/03/21 06:32:48;;;;;;;4.55;3.55;;;;;;;;;;5073175;28;20025;-47
2022/03/21 06:35:14;;;;;;;5.63;3.28;;;;;;;;;;5073197;28;20377;-44
2022/03/21 06:37:40;;;;;;;3.78;3.00;;;;;;;;;;5072682;28;20045;-44
2022/03/21 06:40:07;;;;;;;6.07;3.65;;;;;;;;;;5073340;28;20103;-45
2022/03/21 06:42:33;;;;;;;4.63;3.05;;;;;;;;;;5072310;28;20029;-44
2022/03/21 06:44:59;;;;;;;7.07;3.75;;;;;;;;;;5085543;28;20016;-44
2022/03/21 06:47:26;;;;;;;5.00;3.15;;;;;;;;;;5092275;28;20028;-44
2022/03/21 06:49:52;;;;;;;6.25;2.92;;;;;;;;;;5093166;28;20102;-44
2022/03/21 06:52:18;;;;;;;7.18;3.63;;;;;;;;;;5092076;28;20145;-52
2022/03/21 06:54:45;;;;;;;5.88;3.05;;;;;;;;;;5093522;28;20042;-46
2022/03/21 06:57:11;;;;;;;7.15;2.55;;;;;;;;;;5075651;28;20024;-44
2022/03/21 06:59:37;;;;;;;6.80;3.72;;;;;;;;;;5091851;28;20648;-44
2022/03/21 07:02:04;;;;;;;12.35;3.15;;;;;;;;;;5092746;28;20101;-46
2022/03/21 07:04:31;;;;;;;7.15;3.85;;;;;;;;;;5091930;28;20032;-44
2022/03/21 07:06:57;;;;;;;10.48;4.30;;;;;;;;;;5092981;28;20032;-44
2022/03/21 07:09:26;;;;;;;8.70;3.20;;;;;;;;;;5091910;28;20031;-48
2022/03/21 07:11:52;;;;;;;10.55;4.28;;;;;;;;;;5092429;28;20054;-44
2022/03/21 07:14:19;;;;;;;5.32;2.92;;;;;;;;;;5092100;28;20024;-52
2022/03/21 07:16:45;;;;;;;6.35;3.47;;;;;;;;;;5092542;28;20106;-44
2022/03/21 07:19:11;;;;;;;7.95;3.38;;;;;;;;;;5092224;28;20024;-44
2022/03/21 07:21:38;;;;;;;4.78;2.85;;;;;;;;;;5091818;28;20036;-43
2022/03/21 07:24:05;;;;;;;5.15;3.10;;;;;;;;;;5092750;28;20020;-44
2022/03/21 07:26:33;;;;;;;6.07;3.03;;;;;;;;;;5091791;28;20095;-48
2022/03/21 07:29:00;;;;;;;6.68;3.05;;;;;;;;;;5092609;28;20020;-44
2022/03/21 07:31:26;;;;;;;10.05;2.90;;;;;;;;;;5091672;28;20032;-44
2022/03/21 07:33:52;;;;;;;8.55;3.80;;;;;;;;;;5091925;28;20441;-44
2022/03/21 07:36:18;;;;;;;7.53;3.83;;;;;;;;;;5092118;28;20042;-53
2022/03/21 07:38:44;;;;;;;7.43;3.63;;;;;;;;;;5092031;28;20106;-44
2022/03/21 07:41:10;;;;;;;5.65;3.45;;;;;;;;;;5092126;28;20055;-46
2022/03/21 07:43:37;;;;;;;6.35;2.95;;;;;;;;;;5089708;28;20032;-44
2022/03/21 07:48:49;;;;;;;7.03;2.85;;;;;;;;;;5071804;28;20107;-46
2022/03/21 07:51:15;;;;;;;5.43;3.20;;;;;;;;;;5071921;28;20032;-44
2022/03/21 07:53:41;;;;;;;8.05;3.72;;;;;;;;;;5070995;28;20021;-44
2022/03/21 07:56:08;;;;;;;7.20;4.10;;;;;;;;;;5071550;28;20478;-44
2022/03/21 07:58:35;;;;;;;10.30;3.25;;;;;;;;;;5070939;28;20374;-45
2022/03/21 08:01:01;;;;;;;7.80;3.55;;;;;;;;;;5071693;28;20027;-49
2022/03/21 08:03:28;;;;;;;4.95;2.80;;;;;;;;;;5070009;28;20035;-49
2022/03/21 08:05:54;;;;;;;11.18;3.70;;;;;;;;;;5071940;28;20035;-45
2022/03/21 08:08:21;;;;;;;5.28;3.30;;;;;;;;;;5063450;28;20027;-45
2022/03/21 08:10:48;;;;;;;13.65;3.95;;;;;;;;;;5073243;28;20025;-46
2022/03/21 08:13:17;;;;;;;4.55;3.28;;;;;;;;;;5072825;28;20095;-43
2022/03/21 08:15:46;;;;;;;5.13;3.38;;;;;;;;;;5070826;28;20036;-43
2022/03/21 08:18:13;;;;;;;6.75;3.22;;;;;;;;;;5071663;28;20017;-44
2022/03/21 08:20:40;;;;;;;5.75;3.17;;;;;;;;;;5070813;28;20854;-44
2022/03/21 08:23:11;;;;;;;6.10;3.78;;;;;;;;;;5071590;28;20036;-48
2022/03/21 08:25:38;;;;;;;5.95;3.20;;;;;;;;;;5052882;28;20100;-49
2022/03/21 08:28:05;;;;;;;6.63;3.20;;;;;;;;;;5071493;28;20039;-44
2022/03/21 08:30:33;;;;;;;4.50;3.15;;;;;;;;;;5070660;28;20025;-44
2022/03/21 08:32:59;;;;;;;6.05;3.38;;;;;;;;;;5079859;28;20032;-46
2022/03/21 08:35:25;;;;;;;6.57;3.25;;;;;;;;;;5091839;28;20112;-44
2022/03/21 08:37:51;;;;;;;4.47;3.40;;;;;;;;;;5091395;28;20095;-43
2022/03/21 08:40:17;;;;;;;4.68;2.97;;;;;;;;;;5091657;28;20036;-44
2022/03/21 08:42:44;;;;;;;6.82;3.50;;;;;;;;;;5090769;28;20797;-45
2022/03/21 08:45:10;;;;;;;6.25;3.22;;;;;;;;;;5076784;28;20025;-43
2022/03/21 08:47:37;;;;;;;5.65;3.67;;;;;;;;;;5070604;28;20102;-45
2022/03/21 08:50:03;;;;;;;6.25;3.20;;;;;;;;;;5070790;28;20478;-43
2022/03/21 08:52:29;;;;;;;6.82;3.78;;;;;;;;;;5070637;28;20354;-43
2022/03/21 08:54:56;;;;;;;4.78;3.00;;;;;;;;;;5071218;28;20511;-43
2022/03/21 08:57:22;;;;;;;5.03;3.22;;;;;;;;;;5070576;28;20028;-53
2022/03/21 08:59:48;;;;;;;8.02;3.30;;;;;;;;;;5071395;28;20024;-44
2022/03/21 09:02:17;;;;;;;5.30;2.92;;;;;;;;;;5071027;28;20428;-43
2022/03/21 09:04:43;;;;;;;6.65;3.50;;;;;;;;;;5070202;28;20682;-44
2022/03/21 09:07:09;;;;;;;4.80;2.80;;;;;;;;;;5068286;28;20016;-47
2022/03/21 09:09:35;;;;;;;5.63;3.35;;;;;;;;;;5089848;28;20073;-46
2022/03/21 09:12:02;;;;;;;4.72;3.38;;;;;;;;;;5090650;28;20487;-43
2022/03/21 09:14:28;;;;;;;6.97;3.42;;;;;;;;;;5090705;28;20469;-45
2022/03/21 09:16:56;;;;;;;4.80;2.83;;;;;;;;;;5094704;28;20056;-43
2022/03/21 09:19:23;;;;;;;6.53;3.92;;;;;;;;;;5094473;28;20077;-52
2022/03/21 09:21:49;;;;;;;5.10;3.38;;;;;;;;;;5094568;28;20028;-44
2022/03/21 09:24:15;;;;;;;4.68;3.35;;;;;;;;;;5094763;28;20050;-44
2022/03/21 09:26:41;;;;;;;5.75;3.13;;;;;;;;;;5094112;28;20024;-45
2022/03/21 09:29:07;;;;;;;5.07;3.65;;;;;;;;;;5094275;28;20434;-43
2022/03/21 09:31:36;;;;;;;6.13;3.13;;;;;;;;;;5094038;28;20032;-45
2022/03/21 09:34:02;;;;;;;4.85;3.30;;;;;;;;;;5094671;28;20373;-44
2022/03/21 09:36:28;;;;;;;5.50;3.40;;;;;;;;;;5093304;28;20415;-44
2022/03/21 09:38:54;;;;;;;9.82;3.67;;;;;;;;;;5094007;28;20020;-45
2022/03/21 09:41:25;;;;;;;7.03;3.10;;;;;;;;;;5094313;28;20024;-44
2022/03/21 09:44:03;;;;;;;4.32;3.25;;;;;;;;;;5090838;28;20036;-44
2022/03/21 09:46:30;;;;;;;5.93;3.78;;;;;;;;;;5073538;28;20024;-45
2022/03/21 09:48:56;;;;;;;8.13;3.55;;;;;;;;;;5074220;28;20025;-45
2022/03/21 09:51:29;;;;;;;6.30;3.80;;;;;;;;;;5074007;28;20036;-44
2022/03/21 09:53:56;;;;;;;3.72;2.72;;;;;;;;;;5074115;28;20021;-47
2022/03/21 09:56:22;;;;;;;5.10;3.53;;;;;;;;;;5073973;28;20469;-46
2022/03/21 09:58:48;;;;;;;3.95;3.42;;;;;;;;;;5073265;28;20032;-44
2022/03/21 10:01:15;;;;;;;7.50;4.22;;;;;;;;;;5073885;28;20031;-45
2022/03/21 10:03:42;;;;;;;4.57;2.85;;;;;;;;;;5073295;28;20020;-47
2022/03/21 10:06:31;;;;;;;9.73;3.88;;;;;;;;;;5073802;28;20021;-45
2022/03/21 10:09:03;;;;;;;4.78;3.40;;;;;;;;;;5093232;28;20028;-44
2022/03/21 10:11:29;;;;;;;;;;;;;;;;;;5093567;28;20034;-46
2022/03/21 10:13:55;;;;;;;5.93;3.63;;;;;;;;;;5093686;28;19996;-45
2022/03/21 10:16:21;;;;;;;4.50;2.85;;;;;;;;;;5093910;28;20056;-44
2022/03/21 10:18:53;;;;;;;6.43;3.97;;;;;;;;;;5092879;28;20020;-45
2022/03/21 10:21:19;;;;;;;4.47;3.38;;;;;;;;;;5093294;28;20023;-43
2022/03/21 10:23:57;;;;;;;4.22;3.15;;;;;;;;;;5092895;28;20088;-43
2022/03/21 10:26:24;;;;;;;6.25;3.65;;;;;;;;;;5092932;28;20024;-47
2022/03/21 10:28:52;;;;;;;5.70;3.30;;;;;;;;;;5092775;28;20027;-44
2022/03/21 10:31:33;;;;;;;5.05;3.08;;;;;;;;;;5092153;28;20111;-45
2022/03/21 10:34:00;;;;;;;5.75;4.18;;;;;;;;;;5079911;28;20385;-48
2022/03/21 10:36:26;;;;;;;5.32;3.88;;;;;;;;;;5083099;28;20082;-52
2022/03/21 10:39:05;;;;;;;5.25;3.05;;;;;;;;;;5082697;28;20043;-44
2022/03/21 10:41:35;;;;;;;4.85;3.05;;;;;;;;;;5076059;28;20362;-45
2022/03/21 10:44:02;;;;;;;4.20;2.75;;;;;;;;;;5074214;28;20384;-44
2022/03/21 10:46:28;;;;;;;5.18;3.58;;;;;;;;;;5087187;28;20354;-54
2022/03/21 10:49:01;;;;;;;5.25;3.38;;;;;;;;;;5073004;28;20024;-47
2022/03/21 10:51:27;;;;;;;4.75;3.33;;;;;;;;;;5073464;28;20048;-55
2022/03/21 10:53:53;;;;;;;5.82;3.80;;;;;;;;;;5087825;28;20067;-44
2022/03/21 10:56:19;;;;;;;5.32;3.40;;;;;;;;;;5081321;28;20024;-47
2022/03/21 10:58:47;;;;;;;4.53;3.35;;;;;;;;;;5080480;28;20020;-44
2022/03/21 11:01:20;;;;;;;4.35;3.22;;;;;;;;;;5086020;28;20028;-47
2022/03/21 11:03:49;;;;;;;4.32;3.15;;;;;;;;;;5079387;28;20037;-48
2022/03/21 11:06:15;;;;;;;5.60;3.38;;;;;;;;;;5074643;28;20382;-47
2022/03/21 11:08:41;;;;;;;6.53;3.38;;;;;;;;;;5081763;28;20028;-44
2022/03/21 11:11:09;;;;;;;4.85;3.40;;;;;;;;;;5087201;28;20032;-46
2022/03/21 11:13:37;;;;;;;4.97;3.30;;;;;;;;;;5090563;28;20380;-44
2022/03/21 11:16:03;;;;;;;6.72;3.50;;;;;;;;;;5074089;28;20481;-44
2022/03/21 11:18:30;;;;;;;8.38;3.90;;;;;;;;;;5083111;28;20024;-53
2022/03/21 11:20:59;;;;;;;4.28;3.28;;;;;;;;;;5071866;28;20123;-44
2022/03/21 11:23:26;;;;;;;5.97;3.40;;;;;;;;;;5087679;28;20028;-44
2022/03/21 11:25:56;;;;;;;5.10;3.60;;;;;;;;;;5091855;28;20027;-44
2022/03/21 11:28:28;;;;;;;6.63;4.13;;;;;;;;;;5092619;28;20437;-44
2022/03/21 11:30:54;;;;;;;;;;;;;;;;;;5092316;28;20048;-45
2022/03/21 11:33:38;;;;;;;5.60;3.58;;;;;;;;;;5091534;28;19931;-43
2022/03/21 11:36:09;;;;;;;4.78;3.03;;;;;;;;;;5072707;28;20037;-44
2022/03/21 11:38:36;;;;;;;5.03;3.40;;;;;;;;;;5087598;28;20020;-44
2022/03/21 11:41:21;;;;;;;6.05;3.88;;;;;;;;;;5091858;28;20435;-49
2022/03/21 11:43:47;;;;;;;5.45;3.38;;;;;;;;;;5070563;28;20086;-44
2022/03/21 11:46:25;;;;;;;5.82;3.67;;;;;;;;;;5071918;28;20527;-45
2022/03/21 11:48:52;;;;;;;6.38;3.67;;;;;;;;;;5071102;28;20098;-50
2022/03/21 11:51:18;;;;;;;7.53;4.63;;;;;;;;;;5079738;28;20074;-44
2022/03/21 11:53:45;;;;;;;7.10;4.50;;;;;;;;;;5085167;28;20024;-46
2022/03/21 11:56:18;;;;;;;6.38;3.58;;;;;;;;;;5088855;28;20031;-44
2022/03/21 11:58:45;;;;;;;7.78;4.80;;;;;;;;;;5090942;28;20373;-48
2022/03/21 12:01:28;;;;;;;5.35;4.45;;;;;;;;;;5083445;28;20032;-45
2022/03/21 12:03:54;;;;;;;8.35;5.10;;;;;;;;;;5072321;28;20033;-46
2022/03/21 12:06:22;;;;;;;7.32;4.95;;;;;;;;;;5080204;28;20032;-46
2022/03/21 12:08:48;;;;;;;8.45;4.25;;;;;;;;;;5080435;28;20028;-45
2022/03/21 12:11:33;;;;;;;7.78;3.90;;;;;;;;;;5085259;28;20397;-46
2022/03/21 12:14:18;;;;;;;7.38;4.25;;;;;;;;;;5072524;28;20029;-46
2022/03/21 12:16:44;;;;;;;7.55;4.75;;;;;;;;;;5080384;28;20139;-47
2022/03/21 12:19:10;;;;;;;6.47;4.57;;;;;;;;;;5091809;28;20099;-46
2022/03/21 12:21:36;;;;;;;4.97;3.80;;;;;;;;;;5077695;28;20058;-43
2022/03/21 12:24:11;;;;;;;6.70;4.60;;;;;;;;;;5087331;28;20028;-48
2022/03/21 12:26:38;;;;;;;4.63;3.78;;;;;;;;;;5075602;28;20051;-47
2022/03/21 12:29:32;;;;;;;4.82;3.67;;;;;;;;;;5076572;28;20035;-47
2022/03/21 12:32:17;;;;;;;9.32;4.88;;;;;;;;;;5074308;28;20029;-46
2022/03/21 12:34:44;;;;;;;6.70;4.20;;;;;;;;;;5089599;28;20024;-49
2022/03/21 12:37:24;;;;;;;7.55;4.63;;;;;;;;;;5090043;28;20034;-46
2022/03/21 12:39:50;;;;;;;6.55;4.13;;;;;;;;;;5089879;28;20475;-46
2022/03/21 12:42:20;;;;;;;5.45;4.03;;;;;;;;;;5091319;28;20041;-44
2022/03/21 12:44:46;;;;;;;6.90;4.43;;;;;;;;;;5079204;28;20070;-46
2022/03/21 12:47:12;;;;;;;5.88;3.55;;;;;;;;;;5071283;28;20033;-44
2022/03/21 12:49:48;;;;;;;4.82;3.30;;;;;;;;;;5072595;28;20063;-43
2022/03/21 12:52:25;;;;;;;7.00;3.72;;;;;;;;;;5078979;28;20031;-45
2022/03/21 12:54:51;;;;;;;5.55;3.53;;;;;;;;;;5094068;28;20081;-44
2022/03/21 12:57:17;;;;;;;9.18;4.10;;;;;;;;;;5066430;28;20024;-49
2022/03/21 12:59:43;;;;;;;7.15;3.65;;;;;;;;;;5074148;28;20032;-45
2022/03/21 13:02:22;;;;;;;6.07;3.53;;;;;;;;;;5079896;28;20028;-46
2022/03/21 13:10:33;;;;;;;6.35;4.18;;;;;;;;;;5078427;28;20035;-51
2022/03/21 13:12:59;;;;;;;;;;;;;;;;;;5094676;28;20024;-45
2022/03/21 13:15:25;;;;;;;5.80;3.90;;;;;;;;;;5094851;28;19918;-45
2022/03/21 13:17:57;;;;;;;7.57;3.05;;;;;;;;;;5088503;28;20118;-43
2022/03/21 13:20:27;;;;;;;6.30;4.22;;;;;;;;;;5079544;28;20024;-46
2022/03/21 13:22:54;;;;;;;5.18;3.35;;;;;;;;;;5084419;28;20039;-45
2022/03/21 13:25:22;;;;;;;6.35;4.10;;;;;;;;;;5074426;28;20071;-45
2022/03/21 13:27:50;;;;;;;5.20;3.50;;;;;;;;;;5081513;28;20024;-43
2022/03/21 13:30:16;;;;;;;6.22;3.75;;;;;;;;;;5075618;28;20108;-46
2022/03/21 13:32:43;;;;;;;4.60;3.63;;;;;;;;;;5078617;28;20051;-47
2022/03/21 13:35:11;;;;;;;6.45;3.50;;;;;;;;;;5081339;28;20021;-44
2022/03/21 13:37:37;;;;;;;6.03;3.53;;;;;;;;;;5081786;28;20350;-46
2022/03/21 13:40:07;;;;;;;5.03;3.97;;;;;;;;;;5093880;28;20088;-43
2022/03/21 13:42:34;;;;;;;6.32;3.72;;;;;;;;;;5093511;28;20471;-52
2022/03/21 13:45:05;;;;;;;5.95;3.45;;;;;;;;;;5089049;28;20024;-43
2022/03/21 13:47:31;;;;;;;6.32;4.32;;;;;;;;;;5089655;28;20055;-53
2022/03/21 13:49:57;;;;;;;5.75;3.40;;;;;;;;;;5094186;28;20042;-44
2022/03/21 13:52:38;;;;;;;5.60;3.60;;;;;;;;;;5092043;28;20028;-48
2022/03/21 13:55:04;;;;;;;5.47;3.27;;;;;;;;;;5076531;28;20378;-45
2022/03/21 13:57:30;;;;;;;5.25;3.35;;;;;;;;;;5073900;28;20032;-44
2022/03/21 14:00:05;;;;;;;5.00;3.42;;;;;;;;;;5079842;28;20040;-46
2022/03/21 14:02:38;;;;;;;4.90;3.53;;;;;;;;;;5074995;28;20369;-45
2022/03/21 14:05:18;;;;;;;4.78;3.47;;;;;;;;;;5074899;28;20843;-45
2022/03/21 14:07:45;;;;;;;11.27;3.88;;;;;;;;;;5084624;28;20056;-44
2022/03/21 14:10:18;;;;;;;5.15;3.28;;;;;;;;;;5073634;28;20050;-43
2022/03/21 14:12:48;;;;;;;6.28;3.67;;;;;;;;;;5072609;28;20028;-45
2022/03/21 14:15:14;;;;;;;5.47;3.80;;;;;;;;;;5083367;28;20028;-46
2022/03/21 14:17:40;;;;;;;8.40;3.63;;;;;;;;;;5082492;28;20105;-45
2022/03/21 14:20:07;;;;;;;7.22;3.88;;;;;;;;;;5082734;28;20024;-46
2022/03/21 14:22:33;;;;;;;6.22;3.53;;;;;;;;;;5089570;28;20111;-53
2022/03/21 14:24:59;;;;;;;4.88;3.85;;;;;;;;;;5082712;28;20031;-43
2022/03/21 14:27:25;;;;;;;5.07;3.15;;;;;;;;;;5078330;28;20419;-47
2022/03/21 14:29:51;;;;;;;8.00;3.83;;;;;;;;;;5089484;28;20047;-45
2022/03/21 14:32:17;;;;;;;6.85;3.90;;;;;;;;;;5077332;28;20501;-44
2022/03/21 14:34:43;;;;;;;5.15;4.00;;;;;;;;;;5088533;28;20440;-44
2022/03/21 14:37:09;;;;;;;5.57;3.97;;;;;;;;;;5092284;28;20055;-43
2022/03/21 14:39:35;;;;;;;5.07;3.28;;;;;;;;;;5085727;28;20032;-53
2022/03/21 14:42:01;;;;;;;4.50;3.35;;;;;;;;;;5073768;28;20111;-43
2022/03/21 14:44:27;;;;;;;6.57;3.67;;;;;;;;;;5081568;28;20059;-43
2022/03/21 14:46:55;;;;;;;5.22;3.47;;;;;;;;;;5078245;28;20040;-43
2022/03/21 14:49:21;;;;;;;5.65;3.28;;;;;;;;;;5072746;28;20025;-42
2022/03/21 14:51:48;;;;;;;5.97;3.47;;;;;;;;;;5071985;28;20032;-42
2022/03/21 14:54:14;;;;;;;6.88;3.92;;;;;;;;;;5072479;28;20553;-43
2022/03/21 14:56:40;;;;;;;7.03;3.90;;;;;;;;;;5092154;28;20059;-44
2022/03/21 14:59:06;;;;;;;7.68;3.60;;;;;;;;;;5092156;28;20071;-44
2022/03/21 15:01:32;;;;;;;12.13;4.57;;;;;;;;;;5085645;28;20039;-44
2022/03/21 15:03:58;;;;;;;8.05;3.88;;;;;;;;;;5077343;28;20101;-45
2022/03/21 15:06:24;;;;;;;6.68;3.65;;;;;;;;;;5089032;28;20039;-43
2022/03/21 15:08:50;;;;;;;9.40;4.13;;;;;;;;;;5091441;28;20032;-46
2022/03/21 15:11:16;;;;;;;5.32;3.58;;;;;;;;;;5091327;28;20055;-43